Time;durP1;ratioP1;P1;durP2;ratioP2;P2;SDS_P1;SDS_P2;PMS_P1;PMS_P2;Temp;Humidity;BMP_temperature;BMP_pressure;BME280_temperature;BME280_humidity;BME280_pressure;Samples;Min_cycle;Max_cycle;Signal;HPM_P1;HPM_P2
2021/11/12 00:02:20;;;;;;;38.45;21.13;;;7.40;99.90;;;;;;5052371;28;20239;-81
2021/11/12 00:13:05;;;;;;;41.13;23.73;;;7.30;99.90;;;;;;5056679;28;20894;-80
2021/11/12 00:15:34;;;;;;;32.13;21.75;;;7.30;99.90;;;;;;5062087;28;20197;-83
2021/11/12 00:18:02;;;;;;;34.00;22.08;;;7.20;99.90;;;;;;5058756;28;20267;-82
2021/11/12 00:20:31;;;;;;;42.15;24.65;;;7.30;99.90;;;;;;5056934;28;20224;-82
2021/11/12 00:22:58;;;;;;;35.55;23.58;;;7.20;99.90;;;;;;5056400;28;20223;-81
2021/11/12 00:25:25;;;;;;;36.28;22.88;;;7.20;99.90;;;;;;5055512;28;20193;-83
2021/11/12 00:27:52;;;;;;;44.13;24.55;;;7.20;99.90;;;;;;5058527;28;20196;-81
2021/11/12 00:30:29;;;;;;;47.22;24.35;;;7.20;99.90;;;;;;5056754;28;20296;-83
2021/11/12 00:33:04;;;;;;;37.80;24.52;;;7.20;99.90;;;;;;5056307;28;20189;-82
2021/11/12 00:35:38;;;;;;;47.80;23.33;;;7.20;99.90;;;;;;5054614;28;20197;-80
2021/11/12 00:38:08;;;;;;;37.42;24.48;;;7.20;99.90;;;;;;5060740;28;20593;-81
2021/11/12 00:40:43;;;;;;;44.47;21.73;;;7.20;99.90;;;;;;5052356;28;20809;-80
2021/11/12 00:46:06;;;;;;;35.45;22.50;;;7.20;99.90;;;;;;5049559;28;20200;-82
2021/11/12 00:48:36;;;;;;;45.33;25.85;;;7.20;99.90;;;;;;5049877;28;20188;-81
2021/11/12 00:51:17;;;;;;;49.70;24.25;;;7.10;99.90;;;;;;5053579;28;20271;-81
2021/11/12 00:53:51;;;;;;;50.70;24.75;;;7.10;99.90;;;;;;5053009;28;20791;-81
2021/11/12 00:56:19;;;;;;;40.85;24.73;;;7.10;99.90;;;;;;5052968;28;20200;-83
2021/11/12 00:58:47;;;;;;;43.63;22.60;;;7.10;99.90;;;;;;5051520;28;20193;-81
2021/11/12 01:01:14;;;;;;;48.55;25.95;;;7.10;99.90;;;;;;5051532;28;20242;-81
2021/11/12 01:03:41;;;;;;;41.97;24.70;;;7.00;99.90;;;;;;5053322;28;20225;-81
2021/11/12 01:06:09;;;;;;;40.72;23.17;;;7.00;99.90;;;;;;5052873;28;20203;-84
2021/11/12 01:08:36;;;;;;;40.78;23.02;;;7.00;99.90;;;;;;5058390;28;20284;-84
2021/11/12 01:11:04;;;;;;;41.72;24.25;;;7.00;99.90;;;;;;5056564;28;20205;-81
2021/11/12 01:13:34;;;;;;;40.58;25.50;;;7.00;99.90;;;;;;5059229;28;20200;-84
2021/11/12 01:16:01;;;;;;;49.90;24.20;;;7.00;99.90;;;;;;5055212;28;20199;-81
2021/11/12 01:18:28;;;;;;;39.20;24.00;;;7.00;99.90;;;;;;5055257;28;20641;-81
2021/11/12 01:20:55;;;;;;;44.22;26.13;;;7.00;99.90;;;;;;5055333;28;20790;-81
2021/11/12 01:23:24;;;;;;;43.70;25.02;;;7.00;99.90;;;;;;5060967;28;20220;-82
2021/11/12 01:25:51;;;;;;;42.35;22.80;;;6.90;99.90;;;;;;5056123;28;20201;-81
2021/11/12 01:28:19;;;;;;;32.25;23.83;;;6.90;99.90;;;;;;5057918;28;20204;-83
2021/11/12 01:30:46;;;;;;;41.13;24.73;;;6.90;99.90;;;;;;5055094;28;20220;-83
2021/11/12 01:33:12;;;;;;;37.13;23.15;;;6.90;99.90;;;;;;5055796;28;20249;-81
2021/11/12 01:35:39;;;;;;;38.95;24.73;;;6.90;99.90;;;;;;5056689;28;20926;-81
2021/11/12 01:38:06;;;;;;;49.22;24.17;;;6.90;99.90;;;;;;5062902;28;20243;-81
2021/11/12 01:40:35;;;;;;;36.35;24.30;;;6.90;99.90;;;;;;5056250;28;20215;-84
2021/11/12 01:43:08;;;;;;;34.20;23.30;;;6.90;99.90;;;;;;5059068;28;20220;-81
2021/11/12 01:45:54;;;;;;;33.00;23.10;;;6.90;99.90;;;;;;5054280;28;20569;-81
2021/11/12 01:48:33;;;;;;;35.53;23.70;;;6.90;99.90;;;;;;5059876;28;20208;-81
2021/11/12 01:51:04;;;;;;;35.22;24.92;;;6.80;99.90;;;;;;5044722;28;20197;-84
2021/11/12 01:53:35;;;;;;;36.78;25.92;;;6.80;99.90;;;;;;5054358;28;20196;-81
2021/11/12 01:59:12;;;;;;;45.95;24.75;;;6.80;99.90;;;;;;5035729;28;20455;-84
2021/11/12 02:01:45;;;;;;;63.83;26.30;;;6.70;99.90;;;;;;5058581;28;20347;-84
2021/11/12 02:04:14;;;;;;;51.03;25.20;;;6.70;99.90;;;;;;5054174;28;20252;-82
2021/11/12 02:06:42;;;;;;;54.42;25.00;;;6.70;99.90;;;;;;5055882;28;20197;-81
2021/11/12 02:09:13;;;;;;;52.05;27.70;;;6.70;99.90;;;;;;5052530;28;20327;-85
2021/11/12 02:11:44;;;;;;;43.45;24.83;;;6.60;99.90;;;;;;5055776;28;20703;-81
2021/11/12 02:14:11;;;;;;;51.83;22.65;;;6.60;99.90;;;;;;5058362;28;20192;-84
2021/11/12 02:16:42;;;;;;;44.53;24.15;;;6.60;99.90;;;;;;5062317;28;20193;-81
2021/11/12 02:19:09;;;;;;;49.90;22.70;;;6.50;99.90;;;;;;5061685;28;20193;-81
2021/11/12 02:21:43;;;;;;;39.92;23.88;;;6.50;99.90;;;;;;5054397;28;20327;-83
2021/11/12 02:24:11;;;;;;;47.17;23.85;;;6.40;99.90;;;;;;5047116;28;20229;-81
2021/11/12 02:26:41;;;;;;;38.47;21.00;;;6.40;99.90;;;;;;5062577;28;20208;-81
2021/11/12 02:29:09;;;;;;;42.85;22.63;;;6.40;99.90;;;;;;5062692;28;20201;-81
2021/11/12 02:31:37;;;;;;;47.42;23.05;;;6.30;99.90;;;;;;5059824;28;20230;-84
2021/11/12 02:34:07;;;;;;;37.60;21.52;;;6.30;99.90;;;;;;5061229;28;20199;-81
2021/11/12 02:36:37;;;;;;;42.97;22.75;;;6.20;99.90;;;;;;5059016;28;20200;-84
2021/11/12 02:39:07;;;;;;;41.42;24.58;;;6.20;99.90;;;;;;5058861;28;20213;-83
2021/11/12 02:41:34;;;;;;;46.40;22.23;;;6.20;99.90;;;;;;5061161;28;20208;-81
2021/11/12 02:44:02;;;;;;;52.25;21.73;;;6.10;99.90;;;;;;5057779;28;20236;-81
2021/11/12 02:46:30;;;;;;;37.90;21.77;;;6.10;99.90;;;;;;5059624;28;20597;-81
2021/11/12 02:48:57;;;;;;;40.15;21.92;;;6.10;99.90;;;;;;5053328;28;20192;-85
2021/11/12 02:51:27;;;;;;;40.13;19.42;;;6.00;99.90;;;;;;5062279;28;20200;-82
2021/11/12 02:53:57;;;;;;;36.28;19.05;;;6.00;99.90;;;;;;5061753;28;20280;-81
2021/11/12 02:56:28;;;;;;;45.75;22.00;;;6.00;99.90;;;;;;5058037;28;20337;-81
2021/11/12 02:58:59;;;;;;;36.10;20.10;;;6.00;99.90;;;;;;5058651;28;20224;-81
2021/11/12 03:01:29;;;;;;;39.05;20.42;;;6.00;99.90;;;;;;5059799;28;20718;-81
2021/11/12 03:03:57;;;;;;;37.15;19.58;;;6.00;99.90;;;;;;5056604;28;20229;-84
2021/11/12 03:06:24;;;;;;;37.83;19.05;;;6.00;99.90;;;;;;5059970;28;20197;-81
2021/11/12 03:08:52;;;;;;;41.78;19.73;;;6.00;99.90;;;;;;5061235;28;20205;-81
2021/11/12 03:11:21;;;;;;;30.15;18.13;;;6.10;99.90;;;;;;5060191;28;20193;-83
2021/11/12 03:13:49;;;;;;;26.55;18.05;;;6.10;99.90;;;;;;5056237;28;20267;-81
2021/11/12 03:16:16;;;;;;;37.55;19.02;;;6.10;99.90;;;;;;5062660;28;20200;-81
2021/11/12 03:18:45;;;;;;;33.42;19.85;;;6.10;99.90;;;;;;5054940;28;20196;-81
2021/11/12 03:21:15;;;;;;;27.90;18.42;;;6.20;99.90;;;;;;5050704;28;20250;-81
2021/11/12 03:23:47;;;;;;;26.27;17.60;;;6.10;99.90;;;;;;5060634;28;20743;-81
2021/11/12 03:26:25;;;;;;;28.70;18.75;;;6.10;99.90;;;;;;5059897;28;20244;-81
2021/11/12 03:56:33;;;;;;;29.52;18.63;;;6.20;99.90;;;;;;5052970;28;20204;-83
2021/11/12 04:02:01;;;;;;;25.20;17.45;;;6.20;99.90;;;;;;5005552;28;20224;-81
2021/11/12 04:04:42;;;;;;;27.17;16.40;;;6.20;99.90;;;;;;5057166;28;20315;-83
2021/11/12 04:07:23;;;;;;;25.67;17.40;;;6.20;99.90;;;;;;5057667;28;20193;-81
2021/11/12 04:18:25;;;;;;;28.17;16.65;;;6.20;99.90;;;;;;5051544;28;20695;-81
2021/11/12 04:21:08;;;;;;;34.55;17.35;;;6.30;99.90;;;;;;5057457;28;20251;-82
2021/11/12 05:10:49;;;;;;;25.02;17.05;;;6.40;99.90;;;;;;5048641;28;20209;-83
2021/11/12 05:13:52;;;;;;;38.17;23.25;;;6.40;99.90;;;;;;5047164;28;20279;-81
2021/11/12 05:43:56;;;;;;;28.02;16.65;;;6.50;99.90;;;;;;5052262;28;20310;-81
2021/11/12 05:46:38;;;;;;;26.58;15.73;;;6.50;99.90;;;;;;5049387;28;20286;-81
2021/11/12 05:57:23;;;;;;;27.65;16.92;;;6.50;99.90;;;;;;5054776;28;20207;-81
2021/11/12 05:59:50;;;;;;;25.88;15.93;;;6.50;99.90;;;;;;5057219;28;22747;-81
2021/11/12 06:02:16;;;;;;;36.03;15.98;;;6.50;99.90;;;;;;5056258;28;20279;-81
2021/11/12 06:04:44;;;;;;;31.88;18.27;;;6.50;99.90;;;;;;5062920;28;20270;-84
2021/11/12 06:07:11;;;;;;;32.20;18.05;;;6.50;99.90;;;;;;5054079;28;20192;-81
2021/11/12 06:09:38;;;;;;;30.10;16.00;;;6.50;99.90;;;;;;5054255;28;20197;-83
2021/11/12 06:12:10;;;;;;;27.52;17.20;;;6.50;99.90;;;;;;5054131;28;20189;-81
2021/11/12 06:14:39;;;;;;;31.67;17.45;;;6.50;99.90;;;;;;5051318;28;20185;-81
2021/11/12 06:17:06;;;;;;;31.27;17.45;;;6.50;99.90;;;;;;5055381;28;20205;-81
2021/11/12 06:19:33;;;;;;;33.55;16.88;;;6.50;99.90;;;;;;5055376;28;20209;-82
2021/11/12 06:22:00;;;;;;;38.60;18.52;;;6.50;99.90;;;;;;5056363;28;20185;-81
2021/11/12 06:24:27;;;;;;;41.70;17.38;;;6.50;99.90;;;;;;5059197;28;20216;-81
2021/11/12 06:26:54;;;;;;;40.30;19.90;;;6.50;99.90;;;;;;5059491;28;20494;-81
2021/11/12 06:29:21;;;;;;;37.15;17.63;;;6.50;99.90;;;;;;5057518;28;20637;-81
2021/11/12 06:31:50;;;;;;;35.25;18.23;;;6.50;99.90;;;;;;5051013;28;20209;-81
2021/11/12 06:34:17;;;;;;;38.55;18.75;;;6.60;99.90;;;;;;5050613;28;20205;-83
2021/11/12 06:36:44;;;;;;;28.98;16.65;;;6.60;99.90;;;;;;5052670;28;20224;-81
2021/11/12 06:39:11;;;;;;;26.40;16.35;;;6.60;99.90;;;;;;5056776;28;20232;-83
2021/11/12 06:41:53;;;;;;;31.42;18.00;;;6.60;99.90;;;;;;5058306;28;20232;-81
2021/11/12 06:49:54;;;;;;;30.27;18.75;;;6.60;99.90;;;;;;5062233;28;20224;-83
2021/11/12 06:52:22;;;;;;;29.33;16.42;;;6.60;99.90;;;;;;5058696;28;20568;-81
2021/11/12 06:54:50;;;;;;;29.70;17.00;;;6.60;99.90;;;;;;5055840;28;20574;-81
2021/11/12 06:57:18;;;;;;;29.90;16.52;;;6.60;99.90;;;;;;5057777;28;20205;-81
2021/11/12 06:59:46;;;;;;;30.55;16.92;;;6.70;99.90;;;;;;5059104;28;20200;-81
2021/11/12 07:02:17;;;;;;;36.50;17.88;;;6.70;99.90;;;;;;5057726;28;20249;-81
2021/11/12 07:04:44;;;;;;;31.65;17.00;;;6.70;99.90;;;;;;5055783;28;20668;-84
2021/11/12 07:07:11;;;;;;;33.47;15.63;;;6.70;99.90;;;;;;5050006;28;20224;-83
2021/11/12 07:09:38;;;;;;;30.73;16.63;;;6.80;99.90;;;;;;5054567;28;20280;-81
2021/11/12 07:12:06;;;;;;;30.80;18.05;;;6.80;99.90;;;;;;5056259;28;20641;-81
2021/11/12 07:14:33;;;;;;;28.42;17.20;;;6.80;99.90;;;;;;5058145;28;20208;-79
2021/11/12 07:16:59;;;;;;;52.53;29.77;;;6.70;99.90;;;;;;5058312;28;20219;-81
2021/11/12 07:19:28;;;;;;;38.70;21.98;;;6.70;99.90;;;;;;5057947;28;20208;-81
2021/11/12 07:21:57;;;;;;;24.48;16.63;;;6.70;99.90;;;;;;5056915;28;20728;-84
2021/11/12 07:24:24;;;;;;;27.73;15.82;;;6.70;99.90;;;;;;5056007;28;20245;-82
2021/11/12 07:26:51;;;;;;;26.58;14.77;;;6.70;99.90;;;;;;5061823;28;20237;-81
2021/11/12 07:29:20;;;;;;;33.78;16.35;;;6.70;99.90;;;;;;5057278;28;20213;-81
2021/11/12 07:31:47;;;;;;;30.30;17.05;;;6.60;99.90;;;;;;5059926;28;20200;-81
2021/11/12 07:34:14;;;;;;;27.83;17.20;;;6.70;99.90;;;;;;5056824;28;20656;-82
2021/11/12 07:36:45;;;;;;;30.00;17.33;;;6.70;99.90;;;;;;5056381;28;20189;-81
2021/11/12 07:39:16;;;;;;;25.23;17.20;;;6.70;99.90;;;;;;5057645;28;20212;-81
2021/11/12 07:44:40;;;;;;;31.02;18.35;;;6.80;99.90;;;;;;5020220;28;20228;-83
2021/11/12 07:47:13;;;;;;;28.80;17.90;;;6.80;99.90;;;;;;5049747;28;20197;-84
2021/11/12 07:49:40;;;;;;;30.25;18.27;;;6.80;99.90;;;;;;5040010;28;20284;-81
2021/11/12 07:52:10;;;;;;;29.55;17.20;;;6.80;99.90;;;;;;5039007;28;20693;-81
2021/11/12 07:54:38;;;;;;;23.90;17.00;;;6.80;99.90;;;;;;5050329;28;20233;-79
2021/11/12 07:57:06;;;;;;;28.63;18.52;;;6.80;99.90;;;;;;5051895;28;20232;-81
2021/11/12 07:59:34;;;;;;;25.38;16.67;;;6.80;99.90;;;;;;5048961;28;20660;-85
2021/11/12 08:02:01;;;;;;;31.90;18.83;;;6.80;99.90;;;;;;5050017;28;20225;-82
2021/11/12 08:04:29;;;;;;;30.38;19.63;;;6.80;99.90;;;;;;5046945;28;20219;-82
2021/11/12 08:06:57;;;;;;;28.30;17.38;;;6.80;99.90;;;;;;5042436;28;20201;-81
2021/11/12 08:09:28;;;;;;;30.50;18.05;;;6.90;99.90;;;;;;5044013;28;20758;-83
2021/11/12 08:11:58;;;;;;;25.73;18.17;;;6.90;99.90;;;;;;5052812;28;20217;-84
2021/11/12 08:14:27;;;;;;;28.52;17.00;;;6.90;99.90;;;;;;5047229;28;20197;-81
2021/11/12 08:17:02;;;;;;;28.20;17.88;;;6.90;99.90;;;;;;5053625;28;20196;-83
2021/11/12 08:19:34;;;;;;;24.88;17.35;;;6.90;99.90;;;;;;5044264;28;20777;-82
2021/11/12 08:22:05;;;;;;;32.17;19.05;;;6.90;99.90;;;;;;5047310;28;20201;-82
2021/11/12 08:24:39;;;;;;;23.48;17.50;;;6.90;99.90;;;;;;5046573;28;20227;-82
2021/11/12 08:27:18;;;;;;;31.83;19.35;;;6.90;99.90;;;;;;5045393;28;20741;-81
2021/11/12 08:29:53;;;;;;;30.88;20.80;;;6.90;99.90;;;;;;5052767;28;20291;-81
2021/11/12 08:32:46;;;;;;;25.58;17.33;;;7.00;99.90;;;;;;5049911;28;20307;-81
2021/11/12 08:35:30;;;;;;;24.65;17.08;;;7.00;99.90;;;;;;5050084;28;20312;-82
2021/11/12 08:38:05;;;;;;;26.05;17.60;;;7.00;99.90;;;;;;5044310;28;20204;-82
2021/11/12 08:40:51;;;;;;;31.27;17.30;;;7.00;99.90;;;;;;5053147;28;20656;-82
2021/11/12 08:43:21;;;;;;;27.73;16.83;;;7.00;99.90;;;;;;5053135;28;20215;-81
2021/11/12 08:46:01;;;;;;;27.30;17.80;;;7.00;99.90;;;;;;5051940;28;20744;-84
2021/11/12 08:48:37;;;;;;;28.33;16.77;;;7.10;99.90;;;;;;5047039;28;20200;-83
2021/11/12 08:51:07;;;;;;;21.88;16.15;;;7.00;99.90;;;;;;5049400;28;20383;-81
2021/11/12 08:53:34;;;;;;;23.73;16.65;;;7.10;99.90;;;;;;5050115;28;20287;-81
2021/11/12 08:56:02;;;;;;;21.60;16.75;;;7.10;99.90;;;;;;5046581;28;20201;-82
2021/11/12 08:58:30;;;;;;;25.08;17.35;;;7.10;99.90;;;;;;5050396;28;20291;-84
2021/11/12 09:00:57;;;;;;;22.35;15.30;;;7.10;99.90;;;;;;5046300;28;20221;-80
2021/11/12 09:03:24;;;;;;;24.08;17.15;;;7.10;99.90;;;;;;5046398;28;20700;-81
2021/11/12 09:05:51;;;;;;;47.50;29.92;;;7.10;99.90;;;;;;5052105;28;20216;-83
2021/11/12 09:08:19;;;;;;;40.42;24.63;;;7.10;99.90;;;;;;5048571;28;20209;-81
2021/11/12 09:10:46;;;;;;;33.42;18.55;;;7.20;99.90;;;;;;5054817;28;20726;-82
2021/11/12 09:13:18;;;;;;;26.65;16.75;;;7.20;99.90;;;;;;5047309;28;20194;-82
2021/11/12 09:15:49;;;;;;;28.90;18.02;;;7.20;99.90;;;;;;5051357;28;20197;-81
2021/11/12 09:18:18;;;;;;;27.38;16.95;;;7.30;99.90;;;;;;5049599;28;20682;-86
2021/11/12 09:20:44;;;;;;;27.25;17.95;;;7.30;99.90;;;;;;5048333;28;20196;-85
2021/11/12 09:23:11;;;;;;;29.55;17.17;;;7.40;99.90;;;;;;5053057;28;20285;-84
2021/11/12 09:25:38;;;;;;;28.30;17.38;;;7.50;99.90;;;;;;5053662;28;20264;-82
2021/11/12 09:28:05;;;;;;;28.63;17.02;;;7.50;99.90;;;;;;5047200;28;20885;-82
2021/11/12 09:30:35;;;;;;;24.40;17.02;;;7.60;99.90;;;;;;5048872;28;20205;-82
2021/11/12 09:33:04;;;;;;;24.75;16.63;;;7.60;99.90;;;;;;5045824;28;20215;-85
2021/11/12 09:35:31;;;;;;;28.85;16.33;;;7.70;99.90;;;;;;5046507;28;20207;-82
2021/11/12 09:37:59;;;;;;;24.00;16.98;;;7.70;99.90;;;;;;5048731;28;20587;-85
2021/11/12 09:40:26;;;;;;;21.80;17.98;;;7.80;99.90;;;;;;5053655;28;20220;-82
2021/11/12 09:42:53;;;;;;;31.13;18.58;;;7.80;99.90;;;;;;5050182;28;20291;-83
2021/11/12 09:45:21;;;;;;;30.73;19.35;;;7.80;99.90;;;;;;5053452;28;20239;-82
2021/11/12 09:47:52;;;;;;;25.90;17.73;;;7.90;99.90;;;;;;5047627;28;20208;-83
2021/11/12 09:50:22;;;;;;;31.38;18.30;;;7.90;99.90;;;;;;5053415;28;20198;-83
2021/11/12 09:52:50;;;;;;;19.60;13.85;;;7.90;99.90;;;;;;5046730;28;20200;-80
2021/11/12 09:55:19;;;;;;;29.30;19.70;;;8.00;99.90;;;;;;5044468;28;20296;-81
2021/11/12 09:57:47;;;;;;;27.88;18.60;;;8.20;99.90;;;;;;5040932;28;20312;-81
2021/11/12 10:00:18;;;;;;;26.02;17.77;;;8.20;99.90;;;;;;5041023;28;20226;-83
2021/11/12 10:02:46;;;;;;;33.97;22.98;;;8.20;99.90;;;;;;5043511;28;20276;-82
2021/11/12 10:05:17;;;;;;;44.53;29.25;;;8.20;99.90;;;;;;5040396;28;20232;-85
2021/11/12 10:07:44;;;;;;;40.92;25.85;;;8.20;99.90;;;;;;5047044;28;20206;-82
2021/11/12 10:10:14;;;;;;;31.00;19.58;;;8.30;99.90;;;;;;5044274;28;20204;-82
2021/11/12 10:12:44;;;;;;;29.00;19.70;;;8.20;99.90;;;;;;5052978;28;20205;-82
2021/11/12 10:15:17;;;;;;;28.02;18.83;;;8.30;99.90;;;;;;5053448;28;20846;-81
2021/11/12 10:17:45;;;;;;;28.55;18.60;;;8.30;99.90;;;;;;5043601;28;20205;-81
2021/11/12 10:20:16;;;;;;;31.45;20.10;;;8.40;99.90;;;;;;5051371;28;20202;-82
2021/11/12 10:22:45;;;;;;;26.70;19.77;;;8.40;99.90;;;;;;5053419;28;20205;-83
2021/11/12 10:25:12;;;;;;;28.75;18.45;;;8.40;99.90;;;;;;5050178;28;20333;-82
2021/11/12 10:27:43;;;;;;;26.23;18.70;;;8.40;99.90;;;;;;5049773;28;20200;-81
2021/11/12 10:30:13;;;;;;;27.15;20.25;;;8.40;99.90;;;;;;5053291;28;20719;-81
2021/11/12 10:32:42;;;;;;;27.33;20.70;;;8.40;99.90;;;;;;5048182;28;20197;-84
2021/11/12 10:35:18;;;;;;;27.65;20.45;;;8.50;99.90;;;;;;5054046;28;20214;-82
2021/11/12 10:37:47;;;;;;;30.25;20.15;;;8.50;99.90;;;;;;5048588;28;20548;-84
2021/11/12 10:40:16;;;;;;;22.25;18.02;;;8.50;99.90;;;;;;5048643;28;21060;-81
2021/11/12 10:42:44;;;;;;;26.98;20.08;;;8.60;99.90;;;;;;5056466;28;20217;-82
2021/11/12 10:45:14;;;;;;;27.67;20.75;;;8.60;99.90;;;;;;5052353;28;20223;-85
2021/11/12 10:47:47;;;;;;;27.15;20.50;;;8.60;99.90;;;;;;5057941;28;20189;-82
2021/11/12 10:50:14;;;;;;;32.03;21.95;;;8.60;99.90;;;;;;5048902;28;20193;-82
2021/11/12 10:52:41;;;;;;;35.88;22.48;;;8.60;99.90;;;;;;5051390;28;20283;-81
2021/11/12 10:55:13;;;;;;;36.55;22.38;;;8.70;99.90;;;;;;5052390;28;20201;-83
2021/11/12 10:57:46;;;;;;;36.55;25.30;;;8.70;99.90;;;;;;5057023;28;20224;-84
2021/11/12 11:00:17;;;;;;;44.08;27.52;;;8.70;99.90;;;;;;5045333;28;20434;-82
2021/11/12 11:02:46;;;;;;;38.90;25.73;;;8.80;99.90;;;;;;5049170;28;20204;-82
2021/11/12 11:05:15;;;;;;;45.60;26.20;;;8.80;99.90;;;;;;5049123;28;20713;-85
2021/11/12 11:07:42;;;;;;;41.13;26.67;;;8.90;99.90;;;;;;5045796;28;20199;-86
2021/11/12 11:10:24;;;;;;;38.83;26.27;;;8.90;99.90;;;;;;5044632;28;20219;-85
2021/11/12 11:12:51;;;;;;;40.03;24.60;;;8.90;99.90;;;;;;5054653;28;20226;-86
2021/11/12 11:15:24;;;;;;;38.70;26.27;;;9.00;99.90;;;;;;5049138;28;20205;-87
2021/11/12 11:18:18;;;;;;;36.53;26.70;;;9.00;99.90;;;;;;5049844;28;20549;-87
2021/11/12 11:20:47;;;;;;;38.00;24.75;;;9.00;99.90;;;;;;5049996;28;20296;-86
2021/11/12 11:23:15;;;;;;;43.13;28.88;;;9.00;99.90;;;;;;5047410;28;20207;-86
2021/11/12 11:26:00;;;;;;;37.70;24.70;;;9.10;99.90;;;;;;5042856;28;20652;-85
2021/11/12 11:28:27;;;;;;;36.55;24.50;;;9.10;99.90;;;;;;5045999;28;20196;-87
2021/11/12 11:30:54;;;;;;;37.60;25.65;;;9.10;99.90;;;;;;5052992;28;20204;-86
2021/11/12 11:33:22;;;;;;;36.70;26.05;;;9.10;99.90;;;;;;5047201;28;20286;-85
2021/11/12 11:35:55;;;;;;;33.53;24.83;;;9.10;99.90;;;;;;5048010;28;20196;-87
2021/11/12 11:38:26;;;;;;;34.25;23.60;;;9.10;99.90;;;;;;5039091;28;20226;-86
2021/11/12 11:40:53;;;;;;;36.88;23.90;;;9.10;99.90;;;;;;5051858;28;20278;-85
2021/11/12 11:43:23;;;;;;;34.80;23.58;;;9.00;99.90;;;;;;5052658;28;20195;-85
2021/11/12 11:45:51;;;;;;;32.65;22.25;;;9.10;99.90;;;;;;5046825;28;20230;-84
2021/11/12 11:48:19;;;;;;;38.08;20.55;;;9.00;99.90;;;;;;5048868;28;20199;-82
2021/11/12 11:50:54;;;;;;;38.35;24.42;;;9.20;99.90;;;;;;5054900;28;20295;-83
2021/11/12 11:53:25;;;;;;;33.67;25.33;;;9.50;99.90;;;;;;5045970;28;20292;-82
2021/11/12 11:55:54;;;;;;;35.08;22.58;;;9.50;99.90;;;;;;5048656;28;20314;-82
2021/11/12 11:58:42;;;;;;;42.30;24.42;;;9.50;99.90;;;;;;5046953;28;20207;-82
2021/11/12 12:01:12;;;;;;;33.28;24.27;;;9.40;99.90;;;;;;5047721;28;20284;-83
2021/11/12 12:03:39;;;;;;;38.08;24.00;;;9.30;99.90;;;;;;5049351;28;20287;-83
2021/11/12 12:06:09;;;;;;;34.85;23.02;;;9.30;99.90;;;;;;5047808;28;20234;-82
2021/11/12 12:08:48;;;;;;;32.83;23.90;;;9.20;99.90;;;;;;5048002;28;20294;-82
2021/11/12 12:11:20;;;;;;;31.75;24.17;;;9.10;99.90;;;;;;5042229;28;20281;-83
2021/11/12 12:14:19;;;;;;;38.08;24.80;;;9.10;99.90;;;;;;5056437;28;20199;-82
2021/11/12 12:16:50;;;;;;;36.60;23.77;;;9.10;99.90;;;;;;5048809;28;20845;-83
2021/11/12 12:19:43;;;;;;;33.15;23.05;;;9.00;99.90;;;;;;5051099;28;20210;-83
2021/11/12 12:37:51;;;;;;;36.25;23.33;;;9.30;99.90;;;;;;5050849;28;20256;-82
2021/11/12 13:22:50;;;;;;;21.75;14.40;;;10.20;99.90;;;;;;5050484;28;20743;-81
2021/11/12 13:25:29;;;;;;;19.80;15.52;;;10.40;99.90;;;;;;5048058;28;20209;-80
2021/11/12 13:28:11;;;;;;;25.90;16.60;;;10.50;99.90;;;;;;5051014;28;20652;-83
2021/11/12 13:31:00;;;;;;;21.55;14.63;;;10.50;99.90;;;;;;5052525;28;20227;-80
2021/11/12 13:33:36;;;;;;;19.63;14.53;;;10.60;99.90;;;;;;5048047;28;20300;-83
2021/11/12 13:36:23;;;;;;;24.60;15.45;;;10.60;99.90;;;;;;5043231;28;20464;-80
2021/11/12 13:38:54;;;;;;;20.92;15.45;;;10.60;99.90;;;;;;5043590;28;20232;-81
2021/11/12 13:41:23;;;;;;;18.02;13.40;;;10.60;99.90;;;;;;5050120;28;20195;-81
2021/11/12 13:43:52;;;;;;;20.33;16.17;;;10.60;99.90;;;;;;5048741;28;20193;-80
2021/11/12 13:46:20;;;;;;;20.70;14.05;;;10.60;99.90;;;;;;5048288;28;20563;-83
2021/11/12 13:48:49;;;;;;;22.20;15.10;;;10.60;99.90;;;;;;5041828;28;20192;-81
2021/11/12 13:51:23;;;;;;;26.02;15.35;;;10.60;99.90;;;;;;5042342;28;20192;-81
2021/11/12 13:53:50;;;;;;;20.20;14.00;;;10.60;99.90;;;;;;5044138;28;20202;-81
2021/11/12 13:56:18;;;;;;;24.90;13.10;;;10.60;99.90;;;;;;5048471;28;20562;-81
2021/11/12 13:58:45;;;;;;;22.60;13.30;;;10.60;99.90;;;;;;5041723;28;20189;-80
2021/11/12 14:01:21;;;;;;;15.05;12.18;;;10.70;99.90;;;;;;5040631;28;20225;-83
2021/11/12 14:03:49;;;;;;;19.95;12.68;;;10.70;99.90;;;;;;5044225;28;20223;-81
2021/11/12 14:06:19;;;;;;;15.35;12.82;;;10.70;99.90;;;;;;5040518;28;20221;-84
2021/11/12 14:08:47;;;;;;;21.92;13.63;;;10.70;99.90;;;;;;5044921;28;20196;-79
2021/11/12 14:11:33;;;;;;;19.23;13.15;;;10.70;99.90;;;;;;5048802;28;20666;-82
2021/11/12 14:14:03;;;;;;;18.25;12.52;;;10.70;99.90;;;;;;5051022;28;20196;-81
2021/11/12 14:16:35;;;;;;;21.17;14.27;;;10.70;99.90;;;;;;5048979;28;20985;-82
2021/11/12 14:19:39;;;;;;;24.25;13.82;;;10.70;99.90;;;;;;5059354;28;20573;-80
2021/11/12 14:22:28;;;;;;;15.68;11.60;;;10.70;99.90;;;;;;5043192;28;20235;-81
2021/11/12 14:25:10;;;;;;;18.40;13.80;;;10.70;99.90;;;;;;5038114;28;20542;-81
2021/11/12 14:27:41;;;;;;;21.63;13.48;;;10.70;99.90;;;;;;5054808;28;20259;-82
2021/11/12 14:35:56;;;;;;;22.08;12.88;;;10.80;99.90;;;;;;5043756;28;20216;-80
2021/11/12 14:38:33;;;;;;;18.53;11.60;;;10.80;99.90;;;;;;5050941;28;20278;-80
2021/11/12 14:44:03;;;;;;;22.73;12.65;;;10.90;99.90;;;;;;5012680;28;20197;-82
2021/11/12 14:46:34;;;;;;;18.07;12.33;;;11.00;99.90;;;;;;5052166;28;20221;-83
2021/11/12 14:49:12;;;;;;;21.05;12.48;;;11.00;99.90;;;;;;5052513;28;20451;-81
2021/11/12 14:51:53;;;;;;;23.95;12.55;;;11.00;99.90;;;;;;5052002;28;20661;-84
2021/11/12 14:54:26;;;;;;;20.98;13.38;;;11.00;99.90;;;;;;5052082;28;20251;-83
2021/11/12 14:56:53;;;;;;;21.00;13.77;;;11.10;99.90;;;;;;5054423;28;20199;-83
2021/11/12 14:59:20;;;;;;;16.15;12.40;;;11.10;99.90;;;;;;5057012;28;20288;-85
2021/11/12 15:01:47;;;;;;;20.13;14.05;;;11.10;99.90;;;;;;5052728;28;20232;-81
2021/11/12 15:04:16;;;;;;;19.95;12.98;;;11.00;99.90;;;;;;5057520;28;20203;-81
2021/11/12 15:06:44;;;;;;;16.73;12.27;;;11.00;99.90;;;;;;5043866;28;20216;-81
2021/11/12 15:09:16;;;;;;;30.33;13.85;;;11.10;99.90;;;;;;5053450;28;20565;-82
2021/11/12 15:11:47;;;;;;;23.50;14.25;;;11.00;99.90;;;;;;5046530;28;20204;-81
2021/11/12 15:14:17;;;;;;;23.67;13.18;;;11.00;99.90;;;;;;5049556;28;20864;-81
2021/11/12 15:16:44;;;;;;;21.17;14.02;;;11.00;99.90;;;;;;5050219;28;20737;-81
2021/11/12 15:19:13;;;;;;;19.70;13.00;;;11.00;99.90;;;;;;5052668;28;20204;-83
2021/11/12 15:21:46;;;;;;;19.10;13.50;;;11.00;99.90;;;;;;5052106;28;20816;-81
2021/11/12 15:24:23;;;;;;;20.92;14.45;;;11.00;99.90;;;;;;5056088;28;20467;-81
2021/11/12 15:27:10;;;;;;;21.60;13.07;;;11.00;99.90;;;;;;5046096;28;20256;-81
2021/11/12 15:29:39;;;;;;;23.58;14.13;;;11.00;99.90;;;;;;5040275;28;20462;-82
2021/11/12 15:32:15;;;;;;;14.00;11.38;;;11.00;99.90;;;;;;5040567;28;20206;-83
2021/11/12 15:34:46;;;;;;;16.23;13.27;;;11.00;99.90;;;;;;5048868;28;20189;-82
2021/11/12 15:37:19;;;;;;;18.80;13.00;;;11.10;99.90;;;;;;5042820;28;20508;-82
2021/11/12 15:39:56;;;;;;;16.25;12.93;;;11.10;99.90;;;;;;5047945;28;20217;-84
2021/11/12 15:45:22;;;;;;;24.85;12.30;;;11.00;99.90;;;;;;5049283;28;20189;-82
2021/11/12 15:47:52;;;;;;;18.42;12.43;;;11.00;99.90;;;;;;5048127;28;20278;-85
2021/11/12 15:50:22;;;;;;;13.80;9.80;;;11.00;99.90;;;;;;5045415;28;20220;-82
2021/11/12 15:53:07;;;;;;;18.63;12.45;;;11.00;99.90;;;;;;5050208;28;20193;-88
2021/11/12 15:55:42;;;;;;;22.20;12.63;;;11.00;99.90;;;;;;5037208;28;20500;-81
2021/11/12 16:01:01;;;;;;;19.60;12.33;;;11.20;99.90;;;;;;5050497;28;20213;-80
2021/11/12 16:09:00;;;;;;;28.63;12.10;;;11.10;99.90;;;;;;5017911;28;20590;-80
2021/11/12 16:11:42;;;;;;;23.38;12.30;;;11.10;99.90;;;;;;5056299;28;20204;-81
2021/11/12 16:14:13;;;;;;;20.90;13.50;;;11.00;99.90;;;;;;5048457;28;20241;-81
2021/11/12 16:19:31;;;;;;;19.63;11.88;;;11.00;99.90;;;;;;5057307;28;20235;-80
2021/11/12 16:24:54;;;;;;;16.92;11.98;;;11.00;99.90;;;;;;5049450;28;20459;-83
2021/11/12 16:27:22;;;;;;;21.92;12.77;;;10.90;99.90;;;;;;5050391;28;20224;-80
2021/11/12 16:29:51;;;;;;;18.40;13.80;;;10.90;99.90;;;;;;5050547;28;20828;-80
2021/11/12 16:32:23;;;;;;;18.55;13.15;;;10.90;99.90;;;;;;5044509;28;20455;-82
2021/11/12 16:34:55;;;;;;;13.90;11.68;;;10.90;99.90;;;;;;5040036;28;20189;-79
2021/11/12 16:37:24;;;;;;;14.52;12.45;;;10.90;99.90;;;;;;5046360;28;21174;-82
2021/11/12 16:39:54;;;;;;;15.70;12.23;;;10.80;99.90;;;;;;5049197;28;20693;-80
2021/11/12 16:42:38;;;;;;;25.55;16.52;;;10.80;99.90;;;;;;5048605;28;20190;-80
2021/11/12 16:45:12;;;;;;;22.85;14.82;;;10.80;99.90;;;;;;5050227;28;20233;-81